Main page
METAR-TAF:

METAR-TAF

Airports :

Coulter Field

Bryan, Texas, United States

latitude: 30-42-56N, longitude: 096-19-53W, elevation: 367 ft

Current weather observation

The report was made 29 minutes ago, at 09:15 UTC
Wind 8 mph from the South
Temperature 77°F
Humidity 100%
Pressure 29.79 in. Hg
Visibility: 7 miles
Broken clouds at a height of 1100 ft
Overcast at a height of 1800 ft

METAR: KCFD 190915Z AUTO 17007KT 7SM BKN011 OVC018 25/25 A2979 RMK AO2 T02500250

Time: 03:44 (09:44 UTC)


TAF: missing

Weather observations and forecasts of more than 4000 airports (METAR and TAF reports).

The available stations are represented by yellow and red dots on the map.

Hover mouse over dot to see the name of the station.

Then click to see weather observations and forecasts.

To change the map : click on the green buttons with a black cross to zoom in, on the green button with a dash to zoom out, or on the green arrows for adjacent maps.


METAR-TAF: